Time;durP1;ratioP1;P1;durP2;ratioP2;P2;SDS_P1;SDS_P2;PMS_P1;PMS_P2;Temp;Humidity;BMP_temperature;BMP_pressure;BME280_temperature;BME280_humidity;BME280_pressure;Samples;Min_cycle;Max_cycle;Signal;HPM_P1;HPM_P2
2021/07/04 00:00:03;;;;;;;8.50;7.70;;;23.40;81.60;;;;;;5050024;28;21234;-49
2021/07/04 00:02:32;;;;;;;7.37;6.77;;;23.30;82.10;;;;;;5050986;28;21016;-48
2021/07/04 00:04:59;;;;;;;7.80;7.10;;;23.30;82.80;;;;;;5049909;28;20634;-49
2021/07/04 00:07:26;;;;;;;9.37;8.60;;;23.20;83.70;;;;;;5050519;28;21275;-49
2021/07/04 00:09:53;;;;;;;7.73;6.77;;;23.20;84.50;;;;;;5050282;28;20675;-49
2021/07/04 00:12:21;;;;;;;8.23;7.43;;;23.20;85.30;;;;;;5050307;28;20687;-49
2021/07/04 00:14:48;;;;;;;7.43;6.83;;;23.10;85.70;;;;;;5050248;28;20630;-49
2021/07/04 00:17:15;;;;;;;7.97;7.27;;;23.10;86.30;;;;;;5049848;28;20658;-49
2021/07/04 00:19:44;;;;;;;7.27;6.67;;;23.10;86.70;;;;;;5050429;28;21030;-49
2021/07/04 00:22:11;;;;;;;7.37;6.77;;;23.10;87.40;;;;;;5050120;28;20614;-50
2021/07/04 00:24:38;;;;;;;9.30;7.60;;;23.00;87.80;;;;;;5031815;28;20631;-48
2021/07/04 00:27:05;;;;;;;10.00;7.77;;;23.00;88.40;;;;;;5049881;28;21289;-49
2021/07/04 00:29:33;;;;;;;7.60;7.00;;;22.90;88.60;;;;;;5049167;28;21191;-48
2021/07/04 00:32:00;;;;;;;6.70;6.10;;;22.90;89.10;;;;;;5049447;28;20695;-49
2021/07/04 00:34:27;;;;;;;7.83;7.20;;;22.80;89.50;;;;;;5050784;28;20634;-49
2021/07/04 00:36:56;;;;;;;8.20;7.50;;;22.80;89.80;;;;;;5057974;28;20648;-49
2021/07/04 00:39:23;;;;;;;6.67;6.17;;;22.80;90.00;;;;;;5064887;28;20622;-49
2021/07/04 00:41:50;;;;;;;7.67;7.10;;;22.80;90.10;;;;;;5050460;28;20773;-49
2021/07/04 00:44:17;;;;;;;7.37;6.67;;;22.70;90.10;;;;;;5050418;28;20648;-49
2021/07/04 00:46:45;;;;;;;10.00;8.20;;;22.70;90.20;;;;;;5050144;28;20787;-51
2021/07/04 00:49:12;;;;;;;9.00;6.40;;;22.70;90.50;;;;;;5050479;28;21316;-49
2021/07/04 00:51:39;;;;;;;7.37;6.87;;;22.70;90.30;;;;;;5050005;28;20684;-49
2021/07/04 00:54:07;;;;;;;6.90;6.40;;;22.70;90.30;;;;;;5049809;28;20622;-49
2021/07/04 00:56:35;;;;;;;8.00;7.30;;;22.70;90.30;;;;;;5049825;28;20654;-49
2021/07/04 00:59:02;;;;;;;6.97;6.47;;;22.60;90.30;;;;;;5049589;28;20689;-49
2021/07/04 01:01:30;;;;;;;6.60;6.10;;;22.60;90.50;;;;;;5049685;28;20630;-49
2021/07/04 01:03:57;;;;;;;7.27;6.67;;;22.60;90.60;;;;;;5049563;28;20675;-49
2021/07/04 01:06:24;;;;;;;8.87;7.27;;;22.50;90.60;;;;;;5068390;28;20645;-49
2021/07/04 01:08:51;;;;;;;7.80;7.17;;;22.50;90.80;;;;;;5055110;28;20226;-49
2021/07/04 01:11:20;;;;;;;7.40;6.70;;;22.40;90.90;;;;;;5049340;28;20977;-48
2021/07/04 01:13:47;;;;;;;6.83;6.27;;;22.40;91.00;;;;;;5048154;28;20687;-49
2021/07/04 01:16:14;;;;;;;9.70;6.67;;;22.40;91.00;;;;;;5050890;28;20704;-48
2021/07/04 01:18:41;;;;;;;6.60;6.03;;;22.30;91.10;;;;;;5049998;28;20669;-49
2021/07/04 01:21:09;;;;;;;7.97;7.27;;;22.30;91.10;;;;;;5049890;28;20665;-48
2021/07/04 01:23:37;;;;;;;6.80;6.20;;;22.30;91.20;;;;;;5050247;28;21170;-49
2021/07/04 01:26:04;;;;;;;6.20;5.60;;;22.30;91.30;;;;;;5031590;28;20941;-47
2021/07/04 01:28:32;;;;;;;7.00;6.30;;;22.30;91.30;;;;;;5049499;28;20662;-49
2021/07/04 01:30:59;;;;;;;6.77;6.23;;;22.30;91.30;;;;;;5049392;28;20626;-50
2021/07/04 01:33:27;;;;;;;6.30;5.80;;;22.20;91.20;;;;;;5058512;28;20625;-50
2021/07/04 01:35:54;;;;;;;8.97;8.07;;;22.30;91.20;;;;;;5069471;28;20677;-50
2021/07/04 01:38:21;;;;;;;7.33;6.67;;;22.30;91.10;;;;;;5062629;28;20611;-50
2021/07/04 01:40:50;;;;;;;7.20;6.60;;;22.30;91.10;;;;;;5051183;28;20642;-50
2021/07/04 01:43:17;;;;;;;7.57;6.80;;;22.30;91.40;;;;;;5050958;28;20984;-50
2021/07/04 01:45:44;;;;;;;7.27;6.67;;;22.30;91.10;;;;;;5053089;28;20680;-50
2021/07/04 01:48:13;;;;;;;6.57;5.97;;;22.30;91.10;;;;;;5053328;28;20739;-50
2021/07/04 01:50:43;;;;;;;7.87;7.10;;;22.40;91.00;;;;;;5053561;28;20652;-49
2021/07/04 01:53:11;;;;;;;7.60;7.03;;;22.40;90.90;;;;;;5053073;28;20679;-49
2021/07/04 01:55:38;;;;;;;6.70;6.10;;;22.40;90.90;;;;;;5053538;28;20772;-50
2021/07/04 01:58:06;;;;;;;7.43;6.70;;;22.40;91.00;;;;;;5053153;28;20695;-49
2021/07/04 02:00:34;;;;;;;7.17;6.67;;;22.30;91.00;;;;;;5053713;28;20645;-50
2021/07/04 02:03:03;;;;;;;6.87;6.33;;;22.30;91.00;;;;;;5034107;28;20692;-50
2021/07/04 02:05:31;;;;;;;7.33;6.63;;;22.30;91.10;;;;;;5033892;28;20650;-50
2021/07/04 02:07:58;;;;;;;7.30;6.77;;;22.20;91.10;;;;;;5036043;28;20638;-50
2021/07/04 02:10:26;;;;;;;7.47;6.87;;;22.20;91.20;;;;;;5067304;28;20628;-50
2021/07/04 02:12:53;;;;;;;7.10;6.50;;;22.20;91.30;;;;;;5065795;28;20661;-50
2021/07/04 02:15:23;;;;;;;7.20;6.60;;;22.20;91.40;;;;;;5052678;28;20634;-50
2021/07/04 02:17:50;;;;;;;7.93;7.17;;;22.10;91.40;;;;;;5052826;28;20625;-50
2021/07/04 02:20:27;;;;;;;7.50;6.80;;;22.10;91.40;;;;;;5052322;28;20664;-50
2021/07/04 02:22:54;;;;;;;6.90;6.40;;;22.10;91.50;;;;;;5052164;28;21259;-50
2021/07/04 02:25:21;;;;;;;7.00;6.40;;;22.10;91.50;;;;;;5052152;28;20629;-49
2021/07/04 02:27:48;;;;;;;7.30;6.70;;;22.00;91.60;;;;;;5052682;28;20668;-51
2021/07/04 02:30:16;;;;;;;6.57;5.97;;;22.00;91.60;;;;;;5064558;28;21138;-49
2021/07/04 02:32:44;;;;;;;6.73;6.23;;;22.00;91.80;;;;;;5070063;28;20625;-50
2021/07/04 02:35:12;;;;;;;6.87;6.27;;;21.90;91.90;;;;;;5052310;28;20659;-49
2021/07/04 02:37:39;;;;;;;6.77;6.07;;;21.90;92.00;;;;;;5053338;28;20657;-49
2021/07/04 02:40:08;;;;;;;6.70;6.20;;;21.90;92.10;;;;;;5051904;28;20745;-49
2021/07/04 02:42:35;;;;;;;7.23;6.53;;;21.90;92.20;;;;;;5052048;28;21259;-50
2021/07/04 02:45:02;;;;;;;7.97;6.77;;;21.90;92.30;;;;;;5051995;28;20633;-50
2021/07/04 02:47:30;;;;;;;7.43;6.60;;;21.80;92.30;;;;;;5051168;28;20650;-50
2021/07/04 02:49:58;;;;;;;7.47;6.80;;;21.80;92.40;;;;;;5051898;28;20700;-49
2021/07/04 02:52:25;;;;;;;7.63;6.80;;;21.80;92.50;;;;;;5052135;28;20622;-50
2021/07/04 02:54:53;;;;;;;7.87;7.20;;;21.80;92.60;;;;;;5053387;28;20677;-50
2021/07/04 02:57:20;;;;;;;9.00;6.40;;;21.80;92.70;;;;;;5054071;28;20657;-50
2021/07/04 02:59:47;;;;;;;8.63;6.90;;;21.80;93.10;;;;;;5071971;28;20632;-48
2021/07/04 03:02:14;;;;;;;8.37;7.33;;;21.70;92.90;;;;;;5054917;28;20909;-49
2021/07/04 03:04:41;;;;;;;8.50;7.80;;;21.70;93.00;;;;;;5050393;28;20626;-49
2021/07/04 03:07:10;;;;;;;8.27;7.40;;;21.70;93.10;;;;;;5051288;28;21029;-49
2021/07/04 03:09:39;;;;;;;7.40;6.80;;;21.70;93.20;;;;;;5051297;28;20703;-49
2021/07/04 03:12:07;;;;;;;9.60;8.03;;;21.70;93.30;;;;;;5052141;28;20632;-48
2021/07/04 03:14:34;;;;;;;7.60;6.90;;;21.60;93.40;;;;;;5051287;28;20622;-48
2021/07/04 03:17:02;;;;;;;8.17;7.33;;;21.60;93.50;;;;;;5051451;28;20649;-47
2021/07/04 03:19:29;;;;;;;6.97;6.43;;;21.60;93.50;;;;;;5051098;28;21036;-49
2021/07/04 03:21:56;;;;;;;7.57;6.50;;;21.60;93.60;;;;;;5051103;28;20634;-48
2021/07/04 03:24:25;;;;;;;8.37;7.57;;;21.60;93.70;;;;;;5051697;28;21023;-48
2021/07/04 03:26:52;;;;;;;8.03;7.33;;;21.60;93.70;;;;;;5066169;28;20758;-49
2021/07/04 03:29:19;;;;;;;9.00;8.30;;;21.50;93.80;;;;;;5071602;28;20726;-48
2021/07/04 03:31:46;;;;;;;7.47;6.87;;;21.50;93.90;;;;;;5071926;28;20643;-47
2021/07/04 03:34:13;;;;;;;8.00;7.20;;;21.50;94.00;;;;;;5053142;28;21184;-48
2021/07/04 03:36:41;;;;;;;8.33;7.60;;;21.50;94.10;;;;;;5051710;28;20657;-49
2021/07/04 03:39:08;;;;;;;10.10;8.37;;;21.50;94.20;;;;;;5051818;28;20721;-49
2021/07/04 03:41:36;;;;;;;11.57;8.40;;;21.40;94.20;;;;;;5051254;28;20634;-49
2021/07/04 03:44:04;;;;;;;8.47;7.63;;;21.40;94.30;;;;;;5051270;28;20633;-49
2021/07/04 03:46:31;;;;;;;6.93;6.40;;;21.40;94.40;;;;;;5051356;28;20711;-48
2021/07/04 03:48:59;;;;;;;8.80;8.10;;;21.40;94.50;;;;;;5050745;28;20662;-49
2021/07/04 03:51:26;;;;;;;8.57;7.77;;;21.30;94.50;;;;;;5051172;28;20634;-48
2021/07/04 03:53:53;;;;;;;8.80;8.13;;;21.30;94.60;;;;;;5055908;28;21174;-48
2021/07/04 03:56:20;;;;;;;8.20;7.40;;;21.30;94.70;;;;;;5070739;28;20653;-49
2021/07/04 03:58:49;;;;;;;8.67;7.97;;;21.40;94.70;;;;;;5071013;28;20621;-48
2021/07/04 04:01:20;;;;;;;9.70;8.53;;;21.40;94.70;;;;;;5062396;28;20673;-48
2021/07/04 04:03:47;;;;;;;7.83;7.23;;;21.40;94.80;;;;;;5051055;28;20622;-49
2021/07/04 04:06:14;;;;;;;7.00;6.43;;;21.50;94.60;;;;;;5050521;28;20737;-49
2021/07/04 04:08:42;;;;;;;8.97;8.17;;;21.50;94.60;;;;;;5049602;28;20683;-49
2021/07/04 04:11:09;;;;;;;8.23;7.60;;;21.50;94.60;;;;;;5050350;28;20634;-49
2021/07/04 04:13:37;;;;;;;8.13;7.30;;;21.50;94.60;;;;;;5050497;28;21228;-49
2021/07/04 04:16:06;;;;;;;8.90;7.43;;;21.50;94.60;;;;;;5051123;28;20684;-49
2021/07/04 04:18:36;;;;;;;8.90;8.20;;;21.40;94.60;;;;;;5050419;28;20622;-49
2021/07/04 04:21:04;;;;;;;8.90;8.10;;;21.40;94.70;;;;;;5050233;28;20637;-49
2021/07/04 04:23:31;;;;;;;9.63;8.83;;;21.40;94.80;;;;;;5054045;28;21034;-49
2021/07/04 04:25:58;;;;;;;8.37;7.70;;;21.50;94.90;;;;;;5049966;28;20665;-49
2021/07/04 04:28:25;;;;;;;8.57;7.87;;;21.50;94.90;;;;;;5050139;28;20664;-49
2021/07/04 04:30:53;;;;;;;8.80;8.00;;;21.50;94.80;;;;;;5030620;28;21231;-48
2021/07/04 04:33:21;;;;;;;9.27;8.43;;;21.50;94.80;;;;;;5030215;28;20623;-49
2021/07/04 04:35:48;;;;;;;9.13;8.33;;;21.50;94.80;;;;;;5030676;28;20717;-49
2021/07/04 04:38:16;;;;;;;8.20;7.40;;;21.50;94.90;;;;;;5030335;28;20631;-49
2021/07/04 04:40:43;;;;;;;9.23;8.33;;;21.50;94.90;;;;;;5029802;28;21184;-49
2021/07/04 04:43:10;;;;;;;8.37;7.67;;;21.50;94.90;;;;;;5049616;28;20630;-49
2021/07/04 04:45:37;;;;;;;8.60;8.00;;;21.50;94.90;;;;;;5049813;28;20719;-50
2021/07/04 04:48:05;;;;;;;8.53;7.73;;;21.50;95.00;;;;;;5050186;28;21230;-49
2021/07/04 04:50:33;;;;;;;9.60;8.90;;;21.50;95.10;;;;;;5057381;28;20681;-49
2021/07/04 04:53:01;;;;;;;8.90;8.20;;;21.50;95.10;;;;;;5070550;28;20756;-48
2021/07/04 04:55:28;;;;;;;8.77;8.00;;;21.50;95.00;;;;;;5070382;28;20633;-49
2021/07/04 04:57:55;;;;;;;10.00;9.00;;;21.50;95.00;;;;;;5053431;28;20630;-48
2021/07/04 05:00:22;;;;;;;8.80;7.97;;;21.50;95.10;;;;;;5050865;28;20618;-50
2021/07/04 05:02:50;;;;;;;8.07;7.37;;;21.50;95.20;;;;;;5051787;28;20626;-49
2021/07/04 05:05:17;;;;;;;9.87;8.97;;;21.50;95.30;;;;;;5051266;28;20622;-49
2021/07/04 05:07:45;;;;;;;8.80;8.07;;;21.50;95.30;;;;;;5051290;28;20630;-49
2021/07/04 05:10:13;;;;;;;9.23;8.33;;;21.40;95.40;;;;;;5050524;28;20662;-50
2021/07/04 05:12:40;;;;;;;8.93;8.20;;;21.40;95.50;;;;;;5049964;28;20683;-49
2021/07/04 05:15:08;;;;;;;8.70;7.90;;;21.30;95.60;;;;;;5049728;28;20679;-49
2021/07/04 05:17:35;;;;;;;8.73;7.67;;;21.30;95.80;;;;;;5049793;28;20627;-49
2021/07/04 05:20:04;;;;;;;9.03;8.23;;;21.30;95.90;;;;;;5071703;28;20675;-49
2021/07/04 05:22:31;;;;;;;9.87;8.97;;;21.30;95.90;;;;;;5073693;28;20629;-49
2021/07/04 05:25:00;;;;;;;9.67;8.80;;;21.30;95.80;;;;;;5074300;28;20625;-49
2021/07/04 05:27:27;;;;;;;8.83;8.13;;;21.40;95.90;;;;;;5073219;28;20661;-49
2021/07/04 05:29:54;;;;;;;9.50;8.70;;;21.40;95.80;;;;;;5073420;28;20685;-49
2021/07/04 05:32:21;;;;;;;9.33;8.43;;;21.30;95.80;;;;;;5041358;28;20672;-49
2021/07/04 05:34:49;;;;;;;10.20;9.30;;;21.30;95.90;;;;;;5053277;28;20657;-48
2021/07/04 05:37:17;;;;;;;9.80;8.80;;;21.30;96.00;;;;;;5052915;28;20909;-49
2021/07/04 05:39:44;;;;;;;8.97;8.23;;;21.30;96.00;;;;;;5059702;28;20644;-49
2021/07/04 05:42:12;;;;;;;9.90;9.00;;;21.40;95.90;;;;;;5073338;28;20625;-49
2021/07/04 05:44:40;;;;;;;10.43;9.53;;;21.40;95.90;;;;;;5057635;28;20630;-49
2021/07/04 05:47:07;;;;;;;10.13;9.33;;;21.40;95.80;;;;;;5059970;28;20664;-49
2021/07/04 05:49:34;;;;;;;10.30;9.23;;;21.40;95.80;;;;;;5052912;28;21023;-49
2021/07/04 05:52:01;;;;;;;10.93;10.00;;;21.40;95.80;;;;;;5053138;28;20630;-49
2021/07/04 05:54:29;;;;;;;10.40;9.60;;;21.40;95.90;;;;;;5053684;28;20622;-49
2021/07/04 05:56:56;;;;;;;9.97;9.07;;;21.50;95.90;;;;;;5062656;28;20653;-49
2021/07/04 05:59:24;;;;;;;10.77;9.67;;;21.50;95.90;;;;;;5057775;28;20618;-48
2021/07/04 06:01:51;;;;;;;12.70;9.67;;;21.50;95.80;;;;;;5061856;28;20618;-50
2021/07/04 06:04:19;;;;;;;9.40;8.47;;;21.50;95.70;;;;;;5052315;28;20637;-49
2021/07/04 06:06:46;;;;;;;10.33;9.33;;;21.50;95.60;;;;;;5053585;28;20653;-49
2021/07/04 06:09:13;;;;;;;10.13;9.27;;;21.60;95.60;;;;;;5054080;28;20625;-50
2021/07/04 06:11:40;;;;;;;9.33;8.40;;;21.60;95.60;;;;;;5053141;28;20773;-50
2021/07/04 06:14:08;;;;;;;11.10;9.73;;;21.60;95.60;;;;;;5052587;28;20625;-48
2021/07/04 06:16:36;;;;;;;10.43;9.20;;;21.60;95.60;;;;;;5052300;28;20653;-49
2021/07/04 06:19:04;;;;;;;11.37;10.27;;;21.60;95.60;;;;;;5052731;28;20704;-48
2021/07/04 06:21:31;;;;;;;12.23;11.03;;;21.70;95.60;;;;;;5052054;28;20622;-49
2021/07/04 06:23:58;;;;;;;10.93;9.93;;;21.70;95.50;;;;;;5061727;28;20703;-50
2021/07/04 06:26:25;;;;;;;9.90;9.00;;;21.60;95.40;;;;;;5072435;28;20664;-49
2021/07/04 06:28:52;;;;;;;9.70;8.90;;;21.70;95.40;;;;;;5068428;28;21179;-49
2021/07/04 06:31:20;;;;;;;10.60;9.70;;;21.70;95.50;;;;;;5052641;28;21072;-48
2021/07/04 06:33:49;;;;;;;11.80;10.80;;;21.80;95.50;;;;;;5039402;28;21190;-49
2021/07/04 06:36:16;;;;;;;9.10;8.30;;;21.80;95.30;;;;;;5052155;28;20654;-48
2021/07/04 06:38:43;;;;;;;9.40;8.60;;;21.90;95.20;;;;;;5052512;28;21088;-51
2021/07/04 06:41:10;;;;;;;10.13;9.13;;;22.00;95.10;;;;;;5052015;28;20680;-49
2021/07/04 06:43:38;;;;;;;10.77;9.60;;;22.10;94.90;;;;;;5052340;28;20648;-50
2021/07/04 06:46:05;;;;;;;8.97;8.23;;;22.20;94.80;;;;;;5052669;28;20662;-50
2021/07/04 06:48:32;;;;;;;9.80;8.90;;;22.20;94.50;;;;;;5052718;28;20626;-49
2021/07/04 06:51:01;;;;;;;12.50;9.67;;;22.30;94.50;;;;;;5052110;28;20661;-50
2021/07/04 06:53:28;;;;;;;8.80;8.00;;;22.40;94.30;;;;;;5051885;28;20665;-51
2021/07/04 06:55:55;;;;;;;9.17;8.20;;;22.40;94.10;;;;;;5052348;28;20642;-49
2021/07/04 06:58:23;;;;;;;8.30;7.60;;;22.40;94.20;;;;;;5051378;28;20707;-49
2021/07/04 07:00:50;;;;;;;7.63;7.00;;;22.40;94.30;;;;;;5052484;28;20626;-50
2021/07/04 07:03:17;;;;;;;11.07;9.00;;;22.40;94.30;;;;;;5051792;28;20725;-49
2021/07/04 07:05:44;;;;;;;9.17;8.40;;;22.50;94.50;;;;;;5052316;28;20658;-50
2021/07/04 07:08:13;;;;;;;8.93;8.23;;;22.50;94.30;;;;;;5051927;28;20665;-49
2021/07/04 07:10:40;;;;;;;9.50;8.70;;;22.60;94.00;;;;;;5052046;28;20746;-50
2021/07/04 07:13:08;;;;;;;9.20;8.50;;;22.60;94.00;;;;;;5052575;28;20704;-50
2021/07/04 07:15:35;;;;;;;9.43;8.53;;;22.60;93.90;;;;;;5052394;28;20662;-49
2021/07/04 07:18:02;;;;;;;8.60;7.90;;;22.60;93.90;;;;;;5052276;28;20666;-49
2021/07/04 07:20:30;;;;;;;8.30;7.67;;;22.60;94.00;;;;;;5051567;28;20622;-50
2021/07/04 07:22:57;;;;;;;8.27;7.67;;;22.70;94.00;;;;;;5051841;28;20630;-50
2021/07/04 07:25:25;;;;;;;9.30;8.07;;;22.80;93.90;;;;;;5051556;28;20692;-49
2021/07/04 07:27:53;;;;;;;9.47;8.63;;;22.80;93.90;;;;;;5051629;28;20634;-48
2021/07/04 07:30:22;;;;;;;8.17;7.57;;;22.90;93.80;;;;;;5051833;28;21014;-48
2021/07/04 07:32:49;;;;;;;9.80;9.00;;;22.90;93.40;;;;;;5051503;28;20622;-48
2021/07/04 07:35:17;;;;;;;9.30;8.50;;;22.90;93.50;;;;;;5051434;28;21115;-49
2021/07/04 07:37:44;;;;;;;8.13;7.33;;;22.90;93.50;;;;;;5037651;28;20745;-49
2021/07/04 07:40:11;;;;;;;9.87;9.13;;;22.90;93.40;;;;;;5050650;28;20660;-48
2021/07/04 07:42:40;;;;;;;8.57;7.87;;;22.90;93.30;;;;;;5050374;28;20699;-48
2021/07/04 07:45:08;;;;;;;8.67;7.87;;;22.90;93.20;;;;;;5051356;28;21049;-49
2021/07/04 07:47:35;;;;;;;9.00;8.30;;;22.90;93.30;;;;;;5052715;28;20726;-49
2021/07/04 07:50:03;;;;;;;8.37;7.67;;;22.90;93.50;;;;;;5064704;28;20629;-49
2021/07/04 07:52:31;;;;;;;11.07;8.27;;;23.00;93.30;;;;;;5070932;28;20625;-49
2021/07/04 07:54:58;;;;;;;8.63;7.93;;;23.10;93.20;;;;;;5061192;28;20642;-50
2021/07/04 07:57:25;;;;;;;9.50;8.30;;;23.20;93.00;;;;;;5050893;28;20662;-48
2021/07/04 07:59:54;;;;;;;8.63;7.83;;;23.40;93.10;;;;;;5050687;28;20757;-48
2021/07/04 08:02:21;;;;;;;7.70;7.10;;;23.50;92.60;;;;;;5050620;28;21123;-49
2021/07/04 08:04:48;;;;;;;9.83;9.03;;;23.60;92.30;;;;;;5051030;28;20630;-50
2021/07/04 08:07:15;;;;;;;9.63;8.90;;;23.50;92.30;;;;;;5051020;28;20666;-49
2021/07/04 08:09:43;;;;;;;10.43;9.43;;;23.50;92.40;;;;;;5050992;28;20683;-48
2021/07/04 08:12:10;;;;;;;9.50;8.50;;;23.50;92.00;;;;;;5050239;28;20700;-49
2021/07/04 08:14:37;;;;;;;10.37;9.47;;;23.50;92.20;;;;;;5050645;28;21202;-50
2021/07/04 08:17:06;;;;;;;9.47;8.77;;;23.40;92.40;;;;;;5050150;28;20661;-49
2021/07/04 08:19:33;;;;;;;9.43;8.63;;;23.50;92.40;;;;;;5054289;28;20769;-49
2021/07/04 08:22:01;;;;;;;8.90;8.10;;;23.60;92.10;;;;;;5050821;28;20622;-49
2021/07/04 08:24:28;;;;;;;10.40;9.50;;;23.70;91.90;;;;;;5050842;28;20687;-49
2021/07/04 08:26:55;;;;;;;10.47;9.57;;;23.80;91.90;;;;;;5050288;28;20690;-49
2021/07/04 08:29:22;;;;;;;10.63;9.57;;;23.80;91.70;;;;;;5050021;28;20662;-48
2021/07/04 08:31:49;;;;;;;12.70;9.20;;;23.90;91.60;;;;;;5050989;28;20727;-49
2021/07/04 08:34:18;;;;;;;10.43;9.30;;;23.90;91.60;;;;;;5050528;28;20622;-48
2021/07/04 08:36:46;;;;;;;9.27;8.47;;;24.00;91.60;;;;;;5051227;28;20664;-49
2021/07/04 08:39:13;;;;;;;9.67;8.63;;;24.10;91.60;;;;;;5057363;28;20622;-48
2021/07/04 08:41:40;;;;;;;9.57;8.80;;;24.20;91.30;;;;;;5059339;28;20667;-49
2021/07/04 08:44:08;;;;;;;9.03;8.23;;;24.30;90.80;;;;;;5053436;28;20787;-48
2021/07/04 08:46:39;;;;;;;9.70;8.70;;;24.30;90.50;;;;;;5051451;28;20715;-49
2021/07/04 08:49:06;;;;;;;9.83;9.00;;;24.20;89.80;;;;;;5050907;28;20664;-48
2021/07/04 08:51:35;;;;;;;10.33;9.47;;;24.20;90.20;;;;;;5050502;28;20661;-48
2021/07/04 08:54:02;;;;;;;8.47;7.83;;;24.30;90.40;;;;;;5050050;28;20638;-49
2021/07/04 08:56:29;;;;;;;8.73;8.03;;;24.30;89.80;;;;;;5054480;28;20669;-48
2021/07/04 08:58:57;;;;;;;8.30;7.50;;;24.20;89.50;;;;;;5054624;28;21214;-48
2021/07/04 09:01:25;;;;;;;8.87;8.20;;;24.20;87.80;;;;;;5053954;28;20626;-49
2021/07/04 09:03:53;;;;;;;11.87;10.77;;;24.30;88.20;;;;;;5054421;28;20622;-49
2021/07/04 09:06:36;;;;;;;9.03;8.33;;;24.30;88.50;;;;;;5053676;28;21066;-50
2021/07/04 09:09:24;;;;;;;9.77;8.77;;;24.20;89.80;;;;;;5054112;28;20679;-49
2021/07/04 09:11:56;;;;;;;10.00;9.13;;;24.30;90.00;;;;;;5053277;28;20654;-49
2021/07/04 09:14:30;;;;;;;8.80;8.00;;;24.40;89.50;;;;;;5054186;28;20662;-49
2021/07/04 09:16:58;;;;;;;10.20;9.40;;;24.50;89.10;;;;;;5047059;28;20709;-48
2021/07/04 09:19:25;;;;;;;8.87;8.20;;;24.60;88.30;;;;;;5056724;28;20659;-50
2021/07/04 09:21:57;;;;;;;9.30;8.53;;;24.80;87.00;;;;;;5060419;28;20764;-50
2021/07/04 09:24:26;;;;;;;9.87;9.07;;;24.90;86.20;;;;;;5047313;28;20634;-50
2021/07/04 09:26:53;;;;;;;10.57;9.30;;;25.10;86.00;;;;;;5045822;28;20739;-48
2021/07/04 09:29:39;;;;;;;9.27;8.57;;;25.40;84.50;;;;;;5053134;28;20973;-50
2021/07/04 09:32:11;;;;;;;10.47;9.60;;;25.70;82.90;;;;;;5052948;28;20706;-49
2021/07/04 09:34:38;;;;;;;10.40;9.60;;;26.00;81.80;;;;;;5053371;28;20638;-49
2021/07/04 09:37:09;;;;;;;10.20;9.30;;;26.10;81.20;;;;;;5052758;28;21006;-50
2021/07/04 09:39:40;;;;;;;10.00;9.10;;;26.10;80.30;;;;;;5033969;28;21191;-49
2021/07/04 09:42:08;;;;;;;9.30;8.60;;;26.10;80.30;;;;;;5052276;28;20614;-48
2021/07/04 09:44:36;;;;;;;9.43;8.63;;;26.00;79.70;;;;;;5048617;28;20673;-48
2021/07/04 09:47:17;;;;;;;9.73;8.73;;;25.80;80.70;;;;;;5053297;28;20645;-49
2021/07/04 09:49:44;;;;;;;8.70;8.00;;;25.70;80.50;;;;;;5052856;28;20652;-50
2021/07/04 09:52:14;;;;;;;8.90;8.23;;;25.70;81.30;;;;;;5052431;28;20797;-50
2021/07/04 09:54:56;;;;;;;9.40;8.60;;;25.60;81.20;;;;;;5047835;28;20638;-47
2021/07/04 09:57:26;;;;;;;9.70;8.90;;;25.60;81.40;;;;;;5050276;28;20657;-50
2021/07/04 10:00:13;;;;;;;9.80;8.93;;;25.70;81.10;;;;;;5033481;28;21005;-50
2021/07/04 10:02:40;;;;;;;10.03;9.13;;;25.70;80.60;;;;;;5051928;28;20630;-49
2021/07/04 10:05:16;;;;;;;10.67;9.77;;;25.70;81.70;;;;;;5051378;28;20688;-49
2021/07/04 10:07:45;;;;;;;9.00;8.30;;;25.70;81.20;;;;;;5048912;28;20617;-49
2021/07/04 10:10:12;;;;;;;11.13;10.17;;;25.60;81.30;;;;;;5050055;28;20721;-49
2021/07/04 10:12:41;;;;;;;9.03;8.20;;;25.60;81.10;;;;;;5045876;28;20732;-49
2021/07/04 10:15:08;;;;;;;8.83;8.07;;;25.60;81.10;;;;;;5050715;28;20687;-50
2021/07/04 10:17:36;;;;;;;10.00;9.10;;;25.50;80.40;;;;;;5051996;28;20658;-49
2021/07/04 10:20:05;;;;;;;9.70;8.83;;;25.40;80.60;;;;;;5051349;28;21158;-49
2021/07/04 10:22:35;;;;;;;8.93;8.13;;;25.40;80.90;;;;;;5048299;28;21227;-49
2021/07/04 10:25:05;;;;;;;9.07;8.17;;;25.30;80.60;;;;;;5051884;28;20733;-49
2021/07/04 10:27:33;;;;;;;9.13;8.37;;;25.20;80.30;;;;;;5049213;28;20673;-49
2021/07/04 10:30:00;;;;;;;10.20;9.40;;;25.30;80.10;;;;;;5051891;28;20634;-48
2021/07/04 10:32:27;;;;;;;9.40;8.70;;;25.30;80.30;;;;;;5051320;28;20688;-48
2021/07/04 10:34:54;;;;;;;9.33;8.57;;;25.30;81.40;;;;;;5051839;28;20625;-48
2021/07/04 10:37:31;;;;;;;9.43;7.83;;;25.30;81.70;;;;;;5051353;28;20657;-48
2021/07/04 10:40:13;;;;;;;9.77;8.97;;;25.40;82.40;;;;;;5043424;28;20644;-49
2021/07/04 10:42:40;;;;;;;8.10;7.30;;;25.40;82.20;;;;;;5048035;28;20633;-49
2021/07/04 10:45:32;;;;;;;6.23;5.63;;;25.40;80.80;;;;;;5044008;28;20634;-49
2021/07/04 10:48:11;;;;;;;4.50;4.10;;;25.30;78.70;;;;;;5029278;28;20742;-49
2021/07/04 10:50:39;;;;;;;4.60;4.30;;;25.10;75.20;;;;;;5043474;28;21002;-49
2021/07/04 10:53:06;;;;;;;4.50;4.20;;;25.00;72.90;;;;;;5049286;28;20735;-49
2021/07/04 10:55:35;;;;;;;3.90;3.60;;;24.90;72.60;;;;;;5051551;28;20715;-49
2021/07/04 10:58:04;;;;;;;4.63;4.23;;;24.80;73.10;;;;;;5051299;28;20692;-50
2021/07/04 11:00:35;;;;;;;5.07;4.67;;;24.80;73.70;;;;;;5046878;28;20630;-49
2021/07/04 11:03:03;;;;;;;6.33;5.83;;;24.90;74.60;;;;;;5043866;28;20657;-50
2021/07/04 11:05:49;;;;;;;5.10;4.70;;;25.00;74.60;;;;;;5052063;28;20668;-50
2021/07/04 11:08:28;;;;;;;3.40;3.10;;;25.10;75.30;;;;;;5050767;28;20634;-48
2021/07/04 11:11:01;;;;;;;4.27;3.97;;;25.20;73.60;;;;;;5051481;28;20984;-49
2021/07/04 11:13:47;;;;;;;4.47;4.07;;;25.20;72.60;;;;;;5050903;28;21019;-48
2021/07/04 11:16:24;;;;;;;6.23;5.73;;;25.40;73.20;;;;;;5048068;28;20707;-48
2021/07/04 11:19:09;;;;;;;10.73;6.33;;;25.40;73.50;;;;;;5051033;28;20629;-49
2021/07/04 11:21:56;;;;;;;4.67;4.37;;;25.50;73.10;;;;;;5049182;28;20762;-49
2021/07/04 11:24:25;;;;;;;5.33;4.93;;;25.40;73.50;;;;;;5050569;28;20687;-49
2021/07/04 11:27:21;;;;;;;7.73;6.53;;;25.20;75.10;;;;;;5050857;28;20670;-48
2021/07/04 11:30:24;;;;;;;4.83;4.40;;;25.10;74.90;;;;;;5051336;28;20630;-49
2021/07/04 11:33:28;;;;;;;4.60;4.20;;;25.10;75.00;;;;;;5050483;28;20697;-48
2021/07/04 11:35:57;;;;;;;5.07;4.73;;;25.10;74.50;;;;;;5047163;28;20697;-48
2021/07/04 11:38:26;;;;;;;4.77;4.47;;;25.20;74.80;;;;;;5050785;28;20688;-49
2021/07/04 11:40:53;;;;;;;5.07;4.30;;;25.20;74.70;;;;;;5050068;28;20969;-49
2021/07/04 11:43:23;;;;;;;5.70;5.20;;;25.20;74.30;;;;;;5048440;28;20625;-50
2021/07/04 11:45:51;;;;;;;6.50;5.90;;;25.10;75.50;;;;;;5049925;28;20658;-48
2021/07/04 11:48:18;;;;;;;5.40;5.03;;;25.00;75.90;;;;;;5050549;28;21031;-48
2021/07/04 11:50:47;;;;;;;6.20;5.70;;;25.10;76.90;;;;;;5049804;28;20630;-49
2021/07/04 11:53:14;;;;;;;6.27;5.77;;;25.10;77.10;;;;;;5051775;28;20700;-49
2021/07/04 11:56:01;;;;;;;7.60;7.00;;;25.10;78.60;;;;;;5050126;28;20670;-49
2021/07/04 11:58:30;;;;;;;8.60;7.77;;;25.10;80.40;;;;;;5035281;28;20695;-48
2021/07/04 12:00:58;;;;;;;8.70;7.90;;;25.10;81.50;;;;;;5054031;28;20695;-49
2021/07/04 12:03:26;;;;;;;11.20;9.03;;;25.00;82.40;;;;;;5050236;28;20634;-49
2021/07/04 12:05:54;;;;;;;9.37;8.57;;;24.90;82.40;;;;;;5049461;28;20650;-48
2021/07/04 12:08:21;;;;;;;10.17;9.27;;;24.90;81.90;;;;;;5050236;28;20965;-48
2021/07/04 12:10:51;;;;;;;8.27;7.57;;;24.80;82.30;;;;;;5055854;28;20630;-49
2021/07/04 12:13:19;;;;;;;7.60;7.00;;;24.70;83.30;;;;;;5050062;28;20818;-49
2021/07/04 12:15:52;;;;;;;11.43;9.90;;;24.50;86.10;;;;;;5049277;28;20703;-49
2021/07/04 12:18:22;;;;;;;10.70;9.00;;;23.80;94.90;;;;;;5049688;28;21216;-49
2021/07/04 12:20:52;;;;;;;11.73;10.70;;;23.00;97.70;;;;;;5049779;28;20630;-49
2021/07/04 12:23:20;;;;;;;11.07;9.90;;;22.30;98.10;;;;;;5049440;28;21224;-49
2021/07/04 12:25:47;;;;;;;10.90;8.27;;;21.80;98.70;;;;;;5049464;28;20673;-49
2021/07/04 12:28:15;;;;;;;8.40;7.70;;;21.50;99.30;;;;;;5049881;28;20638;-48
2021/07/04 12:30:42;;;;;;;8.33;7.60;;;21.20;99.90;;;;;;5049260;28;20618;-49
2021/07/04 12:33:12;;;;;;;7.20;6.60;;;21.00;99.90;;;;;;5032007;28;20634;-49
2021/07/04 12:35:40;;;;;;;8.33;7.67;;;20.70;99.90;;;;;;5050432;28;21064;-49
2021/07/04 12:38:11;;;;;;;7.83;7.07;;;20.60;99.90;;;;;;5049883;28;20947;-49
2021/07/04 12:40:47;;;;;;;8.53;7.73;;;20.40;99.90;;;;;;5049200;28;20737;-49
2021/07/04 12:43:16;;;;;;;8.87;7.63;;;20.40;99.90;;;;;;5050044;28;20684;-48
2021/07/04 12:45:44;;;;;;;8.40;7.70;;;20.40;99.90;;;;;;5050371;28;20658;-49
2021/07/04 12:48:13;;;;;;;7.90;7.07;;;20.30;99.90;;;;;;5048090;28;20688;-49
2021/07/04 12:50:49;;;;;;;9.87;8.00;;;20.30;99.90;;;;;;5047286;28;20681;-49
2021/07/04 12:53:16;;;;;;;8.60;7.67;;;20.40;99.90;;;;;;5049479;28;20703;-49